Risultati

Download risultati: TXT, XML IOF

OriCup Inverno 2017-2018 - 8^ prova
categoria: ROSSO - lunghezza: 3300mt - dislivello: 0mt
pos. cat. tempo Nome società p. LB p. CITA vel.
1ROSSO *00:19:30PEDROTTI DarioU.S.D. SAN GIORGIO0:05:5400:19:30|3300|0|19.50
2ROSSO *00:19:55DAVES FabioA.D. TRENT-O0:06:0200:19:55|3300|0|19.92
3ROSSO *00:23:24SEGATTA AndreaA.D. TRENT-O0:07:0500:23:24|3300|0|23.40
4ROSSO *00:23:28CAVAZZANI AugustoA.S.D. ORIENTEERING PERGI...0:07:0600:23:28|3300|0|23.47
5ROSSO *00:24:42SCHIAVI CAPPELLO NiccolòGRONLAIT ORIENTEERING TEA...0:07:2900:24:42|3300|0|24.70
6ROSSO *00:25:16IORIATTI FrancescoORIENTEERING PINÈ ...0:07:3900:25:16|3300|0|25.27
7ROSSO *00:25:20BERTOLDI HelgaORIENTEERING MEZZOCORONA ...0:07:4000:25:20|3300|0|25.33
8ROSSO *00:25:50BENIGNI AnnaA.D. TRENT-O0:07:4900:25:50|3300|0|25.83
9ROSSO *00:26:11CASAGRANDE AnnaA.S.D. ORIENTEERING PERGI...0:07:5600:26:11|3300|0|26.18
10ROSSO *00:26:33ZONATO StefanoASD LESSINIA ORIENTEERING...0:08:0200:26:33|3300|0|26.55
11ROSSO *00:26:52VITALII RuppGRONLAIT ORIENTEERING TEA...0:08:0800:26:52|3300|0|26.87
12ROSSO *00:27:54ZULIANI EnricoGRUPPO ORIENTISTI BOLZANO0:08:2700:27:54|3300|0|27.90
13ROSSO *00:28:40TAUFER PieroU.S. PRIMIERO A.S.D.0:08:4100:28:40|3300|0|28.67
14ROSSO *00:29:17TRENTIN DaniloPANDA ORIENTEERING VALS. ...0:08:5200:29:17|3300|0|29.28
15ROSSO *00:29:19TRAVERSI MONTANI MicheleORIENTEERING PINÈ ...0:08:5300:29:19|3300|0|29.32
16ROSSO *00:30:02MAZZUCCO WalterORIENTEERING DOLOMITI ASD0:09:0500:30:02|3300|0|30.03
17ROSSO *00:30:09TRENTIN AngelaPANDA ORIENTEERING VALS. ...0:09:0800:30:09|3300|0|30.15
18ROSSO *00:30:32LIBARDONI GiuseppeORIENTEERING CREA ROSSA A...0:09:1500:30:32|3300|0|30.53
19ROSSO *00:30:38CAVAGNA RaffaelloGRUPPO ORIENTISTI BOLZANO0:09:1600:30:38|3300|0|30.63
20ROSSO *00:31:12CANDOTTI ClaudiaA.D. TRENT-O0:09:2700:31:12|3300|0|31.20
21ROSSO *00:31:45FILIPPI MauroA.D. TRENT-O0:09:3700:31:45|3300|0|31.75
22ROSSO *00:31:48PIFFER MariaA.D. TRENT-O0:09:3800:31:48|3300|0|31.80
23ROSSO *00:32:39BERTOLDI HaraldORIENTEERING MEZZOCORONA ...0:09:5300:32:39|3300|0|32.65
24ROSSO *00:32:49LEONARDELLI AngelaA.S.D. ORIENTEERING PERGI...0:09:5600:32:49|3300|0|32.82
25ROSSO *00:32:52CONCI AlessandroORIENTEERING CREA ROSSA A...0:09:5700:32:52|3300|0|32.87
25ROSSO *00:32:52TRENTIN ValentinaPANDA ORIENTEERING VALS. ...0:09:5700:32:52|3300|0|32.87
27ROSSO *00:32:57GRIGOLLI BrunellaA.D. TRENT-O0:09:5900:32:57|3300|0|32.95
28ROSSO *00:33:26IORIATTI VanessaORIENTEERING PINÈ ...0:10:0700:33:26|3300|0|33.43
29ROSSO *00:34:00DAVID DonatellaORIENTEERING DOLOMITI ASD0:10:1800:34:00|3300|0|34.00
30ROSSO *00:34:30GOBBI GianlucaA.S.D. ORIENTEERING PERGI...0:10:2700:34:30|3300|0|34.50
31ROSSO *00:37:32FAIFER CristinaPANDA ORIENTEERING VALS. ...0:11:2200:37:32|3300|0|37.53
32ROSSO *00:40:25CRISTELLI NancyORIENTEERING PINÈ ...0:12:1400:40:25|3300|0|40.42
33ROSSO *00:41:05BAZZANELLA GiulioORIENTEERING MEZZOCORONA ...0:12:2600:41:05|3300|0|41.08
34ROSSO *00:43:46FORTELEONI PaoloA.S.D. ORIENT EXPRESS VER...0:13:1500:43:46|3300|0|43.77
NPROSSO *00:00:00ALBUZZI JosèORIENTEERING MEZZOCORONA ...0:00:0000:00:00|3300|0|0.00
NPROSSO *00:00:00SARTORI ElisaA.S.D. ORIENTEERING PERGI...0:00:0000:00:00|3300|0|0.00
PMROSSO *00:30:18DEPAOLI LorenzoU.S. PRIMIERO A.S.D.0:09:1000:30:18|3300|0|30.30
PMROSSO *00:34:31MAFFEI LuigiA.D. TRENT-O0:10:2700:34:31|3300|0|34.52
RIROSSO *00:35:49PETRAROLI AldaORIENTEERING PINÈ ...0:10:5100:35:49|3300|0|35.82
Risultati per pagina:

PARTNER UFFICIALI FISO